San Antonio, Valles Caldera, New Mexico Weather observations

Data are for 10 minute period ending at time listed.
 Day   Time   Solar   Ave.   Ave.  Ave.  Vector  Max.   Baro.   Total    
  of    of     Rad.   Air    Rel.  Wind   Wind   Wind  Press.  Precip.   
Year   Day            Temp.  Hum.  Speed  Dir.   Gust                    
2015   (MST)  Kw/m2    F      %     mph   deg.    mph    mb.     in.     
-------------------------------------------------------------------------
 213   14:30   0.15   56.9    83    5.6    76    10.8   399.9    0.00 
 213   14:40   0.30   58.4    80    5.1    98     7.8   399.9    0.00 
 213   14:50   0.31   60.2    78    4.2   121     7.8   399.9    0.00 
 213   15:00   0.38   60.7    79    6.2   150     9.0   400.3    0.00 
 213   15:10   0.33   60.7    81    5.2   149     8.4   400.3    0.00 
 213   15:20   0.26   61.1    80    2.6   153     4.8   400.3    0.00 
 213   15:30   0.24   61.4    78    1.9   134     3.6   400.3    0.00 
 213   15:40   0.26   62.4    75    3.1   291     8.4   400.3    0.00 
 213   15:50   0.22   62.4    71    3.6   330     8.4   399.9    0.00 
 213   16:00   0.22   62.5    70    2.3   325     7.2   400.3    0.00 
 213   16:10   0.21   62.2    71    4.3    18     9.6   400.3    0.00 
 213   16:20   0.15   61.2    73    2.8    59     8.4   400.3    0.00 
 213   16:30   0.18   61.3    74    5.8   144    11.9   399.9    0.00 
 213   16:40   0.28   61.8    75    3.9   158     7.8   400.3    0.00 
 213   16:50   0.18   62.2    73    3.6   231     6.0   400.3    0.00 
 213   17:00   0.09   61.1    76    4.4   128     8.4   400.3    0.00 
 213   17:10   0.07   60.2    79    3.0    82     6.0   400.3    0.00 
 213   17:20   0.07   59.7    78    4.1    88     6.6   400.3    0.00 
 213   17:30   0.08   59.3    79    4.7    99     6.6   399.9    0.00 
 213   17:40   0.07   59.0    81    2.9    98     7.2   399.9    0.00 
 213   17:50   0.06   58.9    81    2.6    84     6.0   399.9    0.00 
 213   18:00   0.05   58.5    81    3.4    91     6.0   399.9    0.00 
 213   18:10   0.03   58.4    84    1.9    32     4.2   399.9    0.00 
 213   18:20   0.02   58.0    86    1.7    64     4.2   400.3    0.00 
 213   18:30   0.01   57.5    86    0.9    84     3.6   399.9    0.00 
 213   18:40   0.01   57.0    87    3.8    84     6.0   399.9    0.00 
 213   18:50   0.00   56.7    87    2.5    27     4.2   399.9    0.00 
 213   19:00   0.00   56.3    88    1.8    48     4.2   399.9    0.00 
 213   19:10   0.00   56.0    89    0.9    51     3.0   400.3    0.00 
 213   19:20   0.00   55.4    90    1.4    51     3.6   399.9    0.00 
 213   19:30   0.00   55.1    91    0.6    11     2.4   400.3    0.00 
 213   19:40   0.00   54.9    91    3.4   102     6.6   399.9    0.00 
 213   19:50   0.00   54.9    90    1.7    70     5.4   399.9    0.00 
 213   20:00   0.00   54.5    89    1.8    89     6.0   399.9    0.00 
 213   20:10   0.00   54.8    88    2.0     9     4.8   399.9    0.00 
 213   20:20   0.00   54.7    88    0.5   100     1.8   399.6    0.00 
 213   20:30   0.00   54.6    89    0.6    35     3.0   399.6    0.00 
 213   20:40   0.00   54.2    90    1.0    19     2.4   399.9    0.00 
 213   20:50   0.00   53.9    90    0.9    59     2.4   399.9    0.00 
 213   21:00   0.00   54.0    90    1.1    45     3.0   399.6    0.00 
 213   21:10   0.00   54.0    90    1.5   144     3.6   399.9    0.00 
 213   21:20   0.00   54.3    90    2.3    83     3.6   399.9    0.00 
 213   21:30   0.00   54.5    89    2.2     1     4.8   399.6    0.00 
 213   21:40   0.00   54.6    90    2.0   118     3.6   399.9    0.00 
 213   21:50   0.00   54.5    90    0.8   132     3.0   399.9    0.00 
 213   22:00   0.00   54.2    91    1.0   130     3.6   399.9    0.00 
 213   22:10   0.00   54.0    92    0.8    19     2.4   399.9    0.00 
 213   22:20   0.00   54.0    92    1.1   133     4.2   399.9    0.00 
 213   22:30   0.00   53.9    92    1.4   131     3.6   399.9    0.00 
 213   22:40   0.00   53.7    92    1.7    72     4.2   399.9    0.00 
 213   22:50   0.00   53.5    92    2.2   338     4.8   399.9    0.00 
 213   23:00   0.00   53.2    92    1.9    42     6.0   399.9    0.00 
 213   23:10   0.00   53.3    92    2.8     1     6.6   399.9    0.00 
 213   23:20   0.00   53.0    92    0.8    12     2.4   399.9    0.00 
 213   23:30   0.00   53.0    93    0.6   319     2.4   399.9    0.00 
 213   23:40   0.00   52.8    93    0.4   355     2.4   399.9    0.00 
 213   23:50   0.00   52.7    93    0.2    48     2.4   399.9    0.00 
 214    0:00   0.00   52.5    93    0.5    84     2.4   399.9    0.00 
 214    0:10   0.00   52.4    93    1.0   134     3.6   399.9    0.00 
 214    0:20   0.00   51.9    94    0.2   111     2.4   399.9    0.00 
 214    0:30   0.00   51.9    94    0.9    94     3.0   399.9    0.00 
 214    0:40   0.00   52.0    94    1.2    52     2.4   399.9    0.00 
 214    0:50   0.00   51.7    94    0.0     0     0.0   399.9    0.00 
 214    1:00   0.00   51.4    94    0.0     0     0.0   399.9    0.00 
 214    1:10   0.00   50.9    94    0.4   343     1.8   399.9    0.00 
 214    1:20   0.00   50.7    94    0.0    62     1.2   399.9    0.00 
 214    1:30   0.00   50.7    94    0.5    62     1.8   399.9    0.00 
 214    1:40   0.00   50.9    95    1.0   107     2.4   399.9    0.00 
 214    1:50   0.00   50.6    94    0.6   104     1.8   399.9    0.00 
 214    2:00   0.00   50.6    95    2.5   304     5.4   399.9    0.00 
 214    2:10   0.00   50.6    95    1.4   307     3.6   399.9    0.00 
 214    2:20   0.00   50.7    95    0.4   283     1.8   399.9    0.00 
 214    2:30   0.00   50.9    95    0.2   147     1.8   399.9    0.00 
 214    2:40   0.00   51.0    95    1.4    50     3.6   399.9    0.00 
 214    2:50   0.00   51.0    95    0.2    17     2.4   399.9    0.00 
 214    3:00   0.00   51.0    95    0.0     0     0.0   399.9    0.00 
 214    3:10   0.00   51.0    95    0.0     0     0.0   399.9    0.00 
 214    3:20   0.00   51.0    95    0.0     0     0.0   399.9    0.00 
 214    3:30   0.00   51.0    95    0.1   119     1.2   399.9    0.00 
 214    3:40   0.00   50.8    95    1.1   311     3.0   399.9    0.00 
 214    3:50   0.00   50.6    95    0.5   318     2.4   399.9    0.00 
 214    4:00   0.00   50.4    95    0.1    89     1.8   399.9    0.00 
 214    4:10   0.00   50.3    95    0.1    59     1.2   399.9    0.00 
 214    4:20   0.00   50.0    95    1.4   336     3.0   399.9    0.00 
 214    4:30   0.00   49.8    95    1.2    36     3.6   399.9    0.00 
 214    4:40   0.00   49.4    95    1.0    46     3.0   399.9    0.00 
 214    4:50   0.00   48.9    95    1.2    19     3.0   399.9    0.00 
 214    5:00   0.00   48.8    95    0.8    81     2.4   399.6    0.00 
 214    5:10   0.00   48.8    95    0.6    42     2.4   399.9    0.00 
 214    5:20   0.00   48.9    95    0.9    26     2.4   399.6    0.00 
 214    5:30   0.01   49.1    95    0.7    21     2.4   399.6    0.00 
 214    5:40   0.01   49.3    95    0.6   200     2.4   399.6    0.00 
 214    5:50   0.02   49.5    95    0.0   313     1.2   399.9    0.00 
 214    6:00   0.03   49.8    95    0.0     0     0.0   399.9    0.00 
 214    6:10   0.04   49.9    95    0.0    94     1.2   399.9    0.00 
 214    6:20   0.04   50.3    95    0.0   255     1.2   399.9    0.00 
 214    6:30   0.05   50.5    95    0.4   282     1.8   399.9    0.00 
 214    6:40   0.06   50.8    95    0.3   226     1.8   399.9    0.00 
 214    6:50   0.07   51.2    95    0.0     0     0.0   399.9    0.00 
 214    7:00   0.11   51.9    95    0.4   264     2.4   399.9    0.00 
 214    7:10   0.11   52.2    94    1.5   268     3.0   399.9    0.00 
 214    7:20   0.09   52.4    94    2.0   278     3.0   399.9    0.00 
 214    7:30   0.10   52.8    94    2.1   272     3.6   399.9    0.00 
 214    7:40   0.14   53.3    93    0.9   260     2.4   399.9    0.00 
 214    7:50   0.22   54.3    92    1.0   241     2.4   399.9    0.00 
 214    8:00   0.35   56.9    87    0.6   228     2.4   399.9    0.00 
 214    8:10   0.31   59.6    78    0.6   158     2.4   399.6    0.00 
 214    8:20   0.36   60.1    76    1.5   160     3.6   399.6    0.00 
 214    8:30   0.30   60.5    75    1.1   128     2.4   399.6    0.00 
 214    8:40   0.40   62.5    71    0.5   254     2.4   399.9    0.00 
 214    8:50   0.61   66.7    61    1.5   296     3.0   400.3    0.00 
 214    9:00   0.62   67.3    58    1.6   201     4.2   400.3    0.00 
 214    9:10   0.78   68.2    56    2.1   234     5.4   400.6    0.00 
 214    9:20   0.79   69.1    56    4.0   247     7.8   400.9    0.00 
 214    9:30   0.59   69.2    54    4.9   306    13.1   401.3    0.00 
 214    9:40   0.46   68.9    52    3.6   304     6.6   401.3    0.00 
 214    9:50   0.37   68.9    53    3.3   313    11.3   401.3    0.00 
 214   10:00   0.37   68.2    54    4.4   321     6.6   401.3    0.00 
 214   10:10   0.44   68.2    55    5.9   289    10.2   401.3    0.00 
 214   10:20   0.45   68.0    54    4.4   329     9.6   401.3    0.00 
 214   10:30   0.53   68.5    54    3.9   295     7.8   401.3    0.00 
 214   10:40   0.55   69.3    54    5.1   284     9.0   401.6    0.00 
 214   10:50   0.58   69.3    52    4.7   279     8.4   401.6    0.00 
 214   11:00   0.56   68.4    55    3.9   262     8.4   401.6    0.00 
 214   11:10   0.60   69.4    53    3.4   295     6.0   401.6    0.00 
 214   11:20   0.70   70.1    54    5.3   279     9.6   402.0    0.00 
 214   11:30   1.00   70.7    52    4.3   276     9.0   402.3    0.00 
 214   11:40   0.92   72.1    50    5.2   294    10.2   402.3    0.00 
 214   11:50   0.54   71.5    48    5.4   280    10.8   402.3    0.00 
 214   12:00   0.40   69.0    54    5.3   272     9.6   402.0    0.00 
 214   12:10   0.68   69.2    53    4.5   274     8.4   402.0    0.00 
 214   12:20   0.61   71.0    52    6.5   281    10.8   402.3    0.00 
 214   12:30   0.69   69.8    52    4.1   246    10.8   402.0    0.00 
 214   12:40   0.60   70.7    51    4.3   264    11.9   402.3    0.00 
 214   12:50   0.49   69.9    53    7.6   280    12.5   402.0    0.00 
 214   13:00   0.33   70.0    52    7.3   300    12.5   402.0    0.00 
 214   13:10   0.24   68.7    53    5.6   312     9.0   401.6    0.00 
 214   13:20   0.20   68.2    55    4.7   295     9.0   401.6    0.00 
 214   13:30   0.14   67.8    55    3.9   330     6.0   400.9    0.00 
 214   13:40   0.26   67.6    54    3.1    30    12.5   400.9    0.00 
 214   13:50   0.45   65.7    61    8.3   105    13.1   401.3    0.00 
 214   14:00   0.54   66.0    60    9.3   111    13.7   401.6    0.00 
 214   14:10   0.47   66.3    61    8.5   105    13.1   401.6    0.00 
 214   14:20   0.38   65.3    64    9.1   116    13.7   401.3    0.00 

Return to San Antonio, Valles Caldera graphs page.


Western Regional Climate Center,wrcc@dri.edu